Time;durP1;ratioP1;P1;durP2;ratioP2;P2;SDS_P1;SDS_P2;PMS_P1;PMS_P2;Temp;Humidity;BMP_temperature;BMP_pressure;BME280_temperature;BME280_humidity;BME280_pressure;Samples;Min_cycle;Max_cycle;Signal;HPM_P1;HPM_P2
2023/03/15 00:01:02;;;;;;;6.13;1.97;;;1.80;99.90;;;;;;5033483;28;20228;-81
2023/03/15 00:03:29;;;;;;;8.10;2.17;;;1.70;99.90;;;;;;5001552;28;20201;-81
2023/03/15 00:05:56;;;;;;;5.20;2.20;;;1.70;99.90;;;;;;4993139;28;20731;-81
2023/03/15 00:08:23;;;;;;;12.07;2.30;;;1.70;99.90;;;;;;5010903;28;20204;-80
2023/03/15 00:10:49;;;;;;;6.13;1.80;;;1.60;99.90;;;;;;4993851;28;20693;-80
2023/03/15 00:13:18;;;;;;;10.80;2.13;;;1.60;99.90;;;;;;4993507;28;20209;-80
2023/03/15 00:15:46;;;;;;;8.57;2.07;;;1.60;99.90;;;;;;4993032;28;20211;-80
2023/03/15 00:18:14;;;;;;;9.40;2.20;;;1.50;99.90;;;;;;4993419;28;20212;-80
2023/03/15 00:20:40;;;;;;;5.40;1.90;;;1.60;99.90;;;;;;5006944;28;20228;-80
2023/03/15 00:23:08;;;;;;;6.93;2.40;;;1.60;99.90;;;;;;4992858;28;20304;-80
2023/03/15 00:25:35;;;;;;;11.00;2.20;;;1.50;99.90;;;;;;5007184;28;20228;-81
2023/03/15 00:28:01;;;;;;;13.47;2.13;;;1.50;99.90;;;;;;4992969;28;20208;-81
2023/03/15 00:30:29;;;;;;;10.20;1.97;;;1.50;99.90;;;;;;5009141;28;20212;-82
2023/03/15 00:32:56;;;;;;;9.60;2.30;;;1.60;99.90;;;;;;5023683;28;20206;-82
2023/03/15 00:35:23;;;;;;;12.30;2.63;;;1.60;99.90;;;;;;5033264;28;20199;-80
2023/03/15 00:37:54;;;;;;;9.60;2.20;;;1.60;99.90;;;;;;5028553;28;20216;-81
2023/03/15 00:40:21;;;;;;;10.83;2.10;;;1.60;99.90;;;;;;5011236;28;20689;-79
2023/03/15 00:42:49;;;;;;;8.50;2.13;;;1.70;99.90;;;;;;5001990;28;20224;-81
2023/03/15 00:45:16;;;;;;;7.17;2.07;;;1.70;99.90;;;;;;4991657;28;20236;-81
2023/03/15 00:47:44;;;;;;;4.83;1.97;;;1.70;99.90;;;;;;5015608;28;20200;-79
2023/03/15 00:50:11;;;;;;;13.50;2.30;;;1.70;99.90;;;;;;5029690;28;20679;-80
2023/03/15 00:52:38;;;;;;;6.63;2.07;;;1.70;99.90;;;;;;5017198;28;20216;-81
2023/03/15 00:55:06;;;;;;;10.00;2.10;;;1.80;99.90;;;;;;5024797;28;20203;-80
2023/03/15 00:57:33;;;;;;;10.47;2.10;;;1.90;99.90;;;;;;5024786;28;20220;-80
2023/03/15 01:00:03;;;;;;;8.07;2.33;;;1.70;99.90;;;;;;5017290;28;20237;-81
2023/03/15 01:02:30;;;;;;;9.67;2.73;;;1.60;99.90;;;;;;5006797;28;20216;-81
2023/03/15 01:04:58;;;;;;;7.33;2.20;;;1.70;99.90;;;;;;4993756;28;20208;-80
2023/03/15 01:07:25;;;;;;;6.93;1.97;;;1.80;99.90;;;;;;4992550;28;20201;-80
2023/03/15 01:09:52;;;;;;;9.30;2.00;;;1.80;99.90;;;;;;4998760;28;20207;-80
2023/03/15 01:12:19;;;;;;;12.57;2.43;;;1.90;99.90;;;;;;5004431;28;20304;-82
2023/03/15 01:14:45;;;;;;;5.53;1.60;;;2.00;99.90;;;;;;5005476;28;20204;-80
2023/03/15 01:17:12;;;;;;;9.43;2.17;;;2.10;99.90;;;;;;4996909;28;20836;-80
2023/03/15 01:19:39;;;;;;;16.07;3.33;;;2.10;99.90;;;;;;4992011;28;20197;-81
2023/03/15 01:22:07;;;;;;;6.83;1.90;;;2.30;99.90;;;;;;4999045;28;20223;-81
2023/03/15 01:24:34;;;;;;;8.03;1.80;;;2.40;99.90;;;;;;5012710;28;20287;-79
2023/03/15 01:27:01;;;;;;;9.37;2.43;;;2.40;99.90;;;;;;5023127;28;20200;-81
2023/03/15 01:29:28;;;;;;;12.27;2.93;;;2.40;99.90;;;;;;5025348;28;20208;-81
2023/03/15 01:31:54;;;;;;;13.67;2.40;;;2.40;99.90;;;;;;5001997;28;20225;-79
2023/03/15 01:34:21;;;;;;;7.83;1.70;;;2.30;99.90;;;;;;5013672;28;20211;-80
2023/03/15 01:36:51;;;;;;;11.77;2.60;;;2.30;99.90;;;;;;5008746;28;20221;-82
2023/03/15 01:39:19;;;;;;;11.33;1.77;;;2.30;99.90;;;;;;5014052;28;20868;-81
2023/03/15 01:41:46;;;;;;;7.77;2.20;;;2.20;99.90;;;;;;5011735;28;20228;-80
2023/03/15 01:44:14;;;;;;;5.07;1.97;;;2.20;99.90;;;;;;5032414;28;20202;-81
2023/03/15 01:46:41;;;;;;;12.30;2.53;;;2.40;99.90;;;;;;5020369;28;20609;-80
2023/03/15 01:49:11;;;;;;;8.07;1.80;;;2.40;99.90;;;;;;5011873;28;20215;-81
2023/03/15 01:51:42;;;;;;;12.43;3.10;;;2.50;99.90;;;;;;5008554;28;20577;-83
2023/03/15 01:54:13;;;;;;;2.70;1.50;;;2.60;99.90;;;;;;5001994;28;20196;-80
2023/03/15 01:56:44;;;;;;;8.10;2.60;;;2.60;99.90;;;;;;5007484;28;20217;-81
2023/03/15 01:59:16;;;;;;;8.97;2.30;;;2.60;99.90;;;;;;5001049;28;20215;-81
2023/03/15 02:01:45;;;;;;;7.80;2.20;;;2.60;99.90;;;;;;5012710;28;20247;-82
2023/03/15 02:04:16;;;;;;;10.60;2.53;;;2.60;99.90;;;;;;5012582;28;20231;-80
2023/03/15 02:06:45;;;;;;;14.33;2.30;;;2.70;99.90;;;;;;5012313;28;20660;-80
2023/03/15 02:09:16;;;;;;;7.67;1.70;;;2.70;99.90;;;;;;5011578;28;20865;-81
2023/03/15 02:11:44;;;;;;;9.00;2.30;;;2.80;99.90;;;;;;5006441;28;20228;-80
2023/03/15 02:14:12;;;;;;;9.13;2.23;;;2.80;99.90;;;;;;5011114;28;20204;-80
2023/03/15 02:16:39;;;;;;;11.07;2.37;;;2.90;99.90;;;;;;5011581;28;20595;-81
2023/03/15 02:19:09;;;;;;;6.17;1.83;;;2.90;99.90;;;;;;4999863;28;20582;-80
2023/03/15 02:21:47;;;;;;;7.27;2.20;;;2.90;99.90;;;;;;5002454;28;20220;-80
2023/03/15 02:24:24;;;;;;;8.90;1.90;;;2.90;99.90;;;;;;5000106;28;20211;-81
2023/03/15 02:26:55;;;;;;;10.57;1.80;;;2.90;99.90;;;;;;5003901;28;20206;-81
2023/03/15 02:29:25;;;;;;;5.93;1.50;;;2.90;99.90;;;;;;5008428;28;20200;-80
2023/03/15 02:31:52;;;;;;;8.73;1.73;;;3.00;99.90;;;;;;5008571;28;20231;-80
2023/03/15 02:34:24;;;;;;;8.53;1.80;;;3.00;99.90;;;;;;4996509;28;20197;-81
2023/03/15 02:36:51;;;;;;;9.20;1.83;;;3.00;99.90;;;;;;4994705;28;20256;-81
2023/03/15 02:39:20;;;;;;;7.03;1.87;;;3.00;99.90;;;;;;4995122;28;20578;-80
2023/03/15 02:41:51;;;;;;;4.17;1.80;;;3.00;99.90;;;;;;4995998;28;20229;-81
2023/03/15 02:44:22;;;;;;;7.27;1.67;;;3.00;99.90;;;;;;4996134;28;20205;-81
2023/03/15 02:46:53;;;;;;;9.43;2.13;;;3.00;99.90;;;;;;4994604;28;20209;-82
2023/03/15 02:49:23;;;;;;;5.70;1.93;;;3.10;99.90;;;;;;4995999;28;20205;-80
2023/03/15 02:51:50;;;;;;;6.33;2.40;;;3.10;99.90;;;;;;5014074;28;20716;-80
2023/03/15 02:54:17;;;;;;;7.03;1.90;;;3.20;99.90;;;;;;5014639;28;20564;-81
2023/03/15 02:56:43;;;;;;;6.83;2.07;;;3.10;99.90;;;;;;5014205;28;20208;-81
2023/03/15 02:59:11;;;;;;;11.63;1.57;;;3.10;99.90;;;;;;5007159;28;20201;-82
2023/03/15 03:01:38;;;;;;;5.20;2.27;;;3.10;99.90;;;;;;4997784;28;20275;-81
2023/03/15 03:04:06;;;;;;;8.53;1.93;;;3.10;99.90;;;;;;5011697;28;20226;-80
2023/03/15 03:06:33;;;;;;;11.60;2.50;;;3.10;99.90;;;;;;5020954;28;20691;-80
2023/03/15 03:09:03;;;;;;;8.70;4.23;;;3.10;99.90;;;;;;4995593;28;20201;-81
2023/03/15 03:11:30;;;;;;;7.80;2.13;;;3.10;99.90;;;;;;5021236;28;20753;-80
2023/03/15 03:13:57;;;;;;;6.33;2.40;;;3.10;99.90;;;;;;5028234;28;20199;-82
2023/03/15 03:16:23;;;;;;;9.97;2.17;;;3.10;99.90;;;;;;5015094;28;20204;-81
2023/03/15 03:18:50;;;;;;;10.10;2.10;;;3.00;99.90;;;;;;5023816;28;20228;-81
2023/03/15 03:21:19;;;;;;;7.63;2.83;;;3.00;99.90;;;;;;5020423;28;20333;-80
2023/03/15 03:23:46;;;;;;;12.43;2.90;;;3.00;99.90;;;;;;5012924;28;20210;-81
2023/03/15 03:26:15;;;;;;;10.30;3.07;;;3.00;99.90;;;;;;5029043;28;20588;-79
2023/03/15 03:28:43;;;;;;;9.37;3.13;;;3.00;99.90;;;;;;5029158;28;20246;-79
2023/03/15 03:31:16;;;;;;;10.70;4.93;;;3.00;99.90;;;;;;5000775;28;20640;-81
2023/03/15 03:33:43;;;;;;;10.13;4.70;;;3.00;99.90;;;;;;5012826;28;20204;-80
2023/03/15 03:36:11;;;;;;;9.77;3.83;;;3.00;99.90;;;;;;5014697;28;20208;-80
2023/03/15 03:38:40;;;;;;;9.73;4.50;;;3.00;99.90;;;;;;5012490;28;20220;-81
2023/03/15 03:41:07;;;;;;;11.73;4.97;;;3.00;99.90;;;;;;5013025;28;20731;-80
2023/03/15 03:43:34;;;;;;;11.97;5.27;;;3.00;99.90;;;;;;5014485;28;20214;-81
2023/03/15 03:46:01;;;;;;;11.40;5.00;;;2.90;99.90;;;;;;5014036;28;20258;-81
2023/03/15 03:48:28;;;;;;;14.87;6.30;;;2.90;99.90;;;;;;5001178;28;20201;-81
2023/03/15 03:50:55;;;;;;;13.60;6.17;;;2.90;99.90;;;;;;4998546;28;20213;-81
2023/03/15 03:53:22;;;;;;;9.17;5.90;;;2.80;99.90;;;;;;5028914;28;20203;-81
2023/03/15 03:55:50;;;;;;;11.80;5.87;;;2.80;99.90;;;;;;5012777;28;20209;-80
2023/03/15 03:58:17;;;;;;;14.93;6.03;;;2.80;99.90;;;;;;4994444;28;20590;-80
2023/03/15 04:00:43;;;;;;;13.63;6.00;;;2.70;99.90;;;;;;4994403;28;20229;-81
2023/03/15 04:03:10;;;;;;;13.30;7.50;;;2.60;99.90;;;;;;5002808;28;20239;-80
2023/03/15 04:05:37;;;;;;;12.53;5.70;;;2.60;99.90;;;;;;5027927;28;20200;-80
2023/03/15 04:08:05;;;;;;;8.47;5.80;;;2.50;99.90;;;;;;5002475;28;20650;-80
2023/03/15 04:10:33;;;;;;;11.33;6.20;;;2.40;99.90;;;;;;5013308;28;20239;-81
2023/03/15 04:13:02;;;;;;;13.63;6.13;;;2.30;99.90;;;;;;5025583;28;20208;-81
2023/03/15 04:15:30;;;;;;;10.83;5.47;;;2.30;99.90;;;;;;5028911;28;20235;-79
2023/03/15 04:17:57;;;;;;;12.53;6.47;;;2.30;99.90;;;;;;5014648;28;20238;-80
2023/03/15 04:20:24;;;;;;;17.97;8.20;;;2.20;99.90;;;;;;5012369;28;20196;-81
2023/03/15 04:22:51;;;;;;;12.67;7.10;;;2.10;99.90;;;;;;5012931;28;20200;-80
2023/03/15 04:25:19;;;;;;;13.73;7.30;;;2.10;99.90;;;;;;5009021;28;20215;-82
2023/03/15 04:27:57;;;;;;;15.73;7.67;;;2.10;99.90;;;;;;4999992;28;20201;-81
2023/03/15 04:30:26;;;;;;;18.27;10.83;;;2.00;99.90;;;;;;5006951;28;20211;-81
2023/03/15 04:32:57;;;;;;;15.57;7.57;;;2.20;99.90;;;;;;5009394;28;20212;-81
2023/03/15 04:35:25;;;;;;;13.17;7.60;;;2.20;99.90;;;;;;5006540;28;20275;-80
2023/03/15 04:37:52;;;;;;;11.43;7.67;;;2.20;99.90;;;;;;5022084;28;20230;-80
2023/03/15 04:40:19;;;;;;;12.77;7.20;;;2.30;99.90;;;;;;5033246;28;20254;-79
2023/03/15 04:42:45;;;;;;;11.50;6.53;;;2.40;99.90;;;;;;5033090;28;20314;-80
2023/03/15 04:45:12;;;;;;;9.00;6.10;;;2.40;99.90;;;;;;5032118;28;20208;-80
2023/03/15 04:47:41;;;;;;;15.13;6.37;;;2.50;99.90;;;;;;5033891;28;20282;-80
2023/03/15 04:50:08;;;;;;;10.87;6.07;;;2.50;99.90;;;;;;5033035;28;20217;-80
2023/03/15 04:52:35;;;;;;;11.43;6.63;;;2.50;99.90;;;;;;5031799;28;20439;-80
2023/03/15 04:55:02;;;;;;;15.60;6.50;;;2.50;99.90;;;;;;5031959;28;20204;-80
2023/03/15 04:57:29;;;;;;;13.60;6.63;;;2.50;99.90;;;;;;5033098;28;20724;-80
2023/03/15 04:59:56;;;;;;;12.60;6.87;;;2.50;99.90;;;;;;5032650;28;20207;-80
2023/03/15 05:02:23;;;;;;;9.80;5.87;;;2.50;99.90;;;;;;5033009;28;20224;-81
2023/03/15 05:04:51;;;;;;;7.67;5.13;;;2.50;99.90;;;;;;5032836;28;20266;-80
2023/03/15 05:07:18;;;;;;;10.37;5.37;;;2.50;99.90;;;;;;5032379;28;20214;-80
2023/03/15 05:09:45;;;;;;;8.03;4.90;;;2.60;99.90;;;;;;5031552;28;20206;-80
2023/03/15 05:12:12;;;;;;;11.43;5.07;;;2.60;99.90;;;;;;5032744;28;20314;-80
2023/03/15 05:14:39;;;;;;;8.13;3.83;;;2.70;99.90;;;;;;5033015;28;20230;-79
2023/03/15 05:17:06;;;;;;;9.87;3.70;;;2.70;99.90;;;;;;5033461;28;20617;-80
2023/03/15 05:19:33;;;;;;;6.60;3.90;;;2.70;99.90;;;;;;5007163;28;20228;-81
2023/03/15 05:22:02;;;;;;;8.20;3.67;;;2.70;99.90;;;;;;5008358;28;20635;-80
2023/03/15 05:24:29;;;;;;;5.67;3.40;;;2.70;99.90;;;;;;5019743;28;20672;-80
2023/03/15 05:26:56;;;;;;;6.50;4.10;;;2.60;99.90;;;;;;5032011;28;20208;-80
2023/03/15 05:29:23;;;;;;;11.60;4.20;;;2.60;99.90;;;;;;5026301;28;20206;-80
2023/03/15 05:31:51;;;;;;;11.33;3.77;;;2.50;99.90;;;;;;5012731;28;20228;-81
2023/03/15 05:34:18;;;;;;;10.43;4.70;;;2.50;99.90;;;;;;5004620;28;20576;-80
2023/03/15 05:36:45;;;;;;;8.60;3.83;;;2.50;99.90;;;;;;5006139;28;20200;-80
2023/03/15 05:39:15;;;;;;;5.67;3.87;;;2.50;99.90;;;;;;5013649;28;20688;-80
2023/03/15 05:41:42;;;;;;;6.23;4.00;;;2.50;99.90;;;;;;5021136;28;20227;-80
2023/03/15 05:44:09;;;;;;;6.83;4.10;;;2.50;99.90;;;;;;5007607;28;20658;-80
2023/03/15 05:46:36;;;;;;;7.93;4.07;;;2.60;99.90;;;;;;4991011;28;20205;-80
2023/03/15 05:49:03;;;;;;;7.60;3.73;;;2.60;99.90;;;;;;4992746;28;20209;-81
2023/03/15 05:51:30;;;;;;;9.40;4.30;;;2.60;99.90;;;;;;4991222;28;20225;-80
2023/03/15 05:53:56;;;;;;;8.57;3.90;;;2.60;99.90;;;;;;4992331;28;20220;-81
2023/03/15 05:56:25;;;;;;;6.77;3.87;;;2.60;99.90;;;;;;4993201;28;20213;-81
2023/03/15 05:58:51;;;;;;;7.23;4.00;;;2.60;99.90;;;;;;4991775;28;20227;-81
2023/03/15 06:01:18;;;;;;;6.90;3.50;;;2.60;99.90;;;;;;4993009;28;20232;-80
2023/03/15 06:03:45;;;;;;;5.50;3.70;;;2.70;99.90;;;;;;4992583;28;20194;-80
2023/03/15 06:06:12;;;;;;;8.83;3.93;;;2.70;99.90;;;;;;4993483;28;20581;-80
2023/03/15 06:08:38;;;;;;;7.57;3.90;;;2.70;99.90;;;;;;4995222;28;20197;-81
2023/03/15 06:11:05;;;;;;;8.60;3.83;;;2.70;99.90;;;;;;4996208;28;20679;-80
2023/03/15 06:13:34;;;;;;;7.33;3.87;;;2.80;99.90;;;;;;4996338;28;20300;-81
2023/03/15 06:16:00;;;;;;;8.70;3.80;;;2.70;99.90;;;;;;4995500;28;20209;-80
2023/03/15 06:18:27;;;;;;;8.77;4.03;;;2.80;99.90;;;;;;5017083;28;20234;-80
2023/03/15 06:20:55;;;;;;;7.37;3.33;;;2.80;99.90;;;;;;5024998;28;20664;-80
2023/03/15 06:23:21;;;;;;;7.23;3.50;;;2.80;99.90;;;;;;5034001;28;20581;-80
2023/03/15 06:25:48;;;;;;;8.93;3.97;;;2.80;99.90;;;;;;5035522;28;20212;-80
2023/03/15 06:28:15;;;;;;;6.03;3.80;;;2.90;99.90;;;;;;5033974;28;20914;-81
2023/03/15 06:30:43;;;;;;;8.80;3.53;;;2.90;99.90;;;;;;5026252;28;20254;-80
2023/03/15 06:33:10;;;;;;;6.87;3.10;;;2.90;99.90;;;;;;5027191;28;20203;-80
2023/03/15 06:35:37;;;;;;;6.80;3.50;;;2.90;99.90;;;;;;5033919;28;20587;-80
2023/03/15 06:38:04;;;;;;;5.73;3.50;;;2.90;99.90;;;;;;5033589;28;20199;-80
2023/03/15 06:40:31;;;;;;;4.23;2.90;;;2.90;99.90;;;;;;5035701;28;20203;-80
2023/03/15 06:43:02;;;;;;;6.20;3.47;;;3.00;99.90;;;;;;5035640;28;20214;-81
2023/03/15 06:45:30;;;;;;;6.03;3.50;;;3.00;99.90;;;;;;5035144;28;20283;-81
2023/03/15 06:47:58;;;;;;;4.37;3.10;;;3.00;99.90;;;;;;5035471;28;20203;-81
2023/03/15 06:50:25;;;;;;;8.13;3.57;;;3.00;99.90;;;;;;5034944;28;20203;-81
2023/03/15 06:52:52;;;;;;;7.70;3.60;;;3.00;99.90;;;;;;5035197;28;20218;-83
2023/03/15 06:55:19;;;;;;;7.17;3.70;;;3.00;99.90;;;;;;5016542;28;20658;-81
2023/03/15 06:57:46;;;;;;;6.03;3.70;;;3.10;99.90;;;;;;4994503;28;20205;-81
2023/03/15 07:00:16;;;;;;;9.17;4.10;;;3.10;99.90;;;;;;5007685;28;20224;-81
2023/03/15 07:02:42;;;;;;;6.00;3.40;;;3.20;99.90;;;;;;5013269;28;20607;-80
2023/03/15 07:05:11;;;;;;;4.90;3.37;;;3.30;99.90;;;;;;4993725;28;20201;-81
2023/03/15 07:07:38;;;;;;;8.50;3.80;;;3.30;99.90;;;;;;4995677;28;20216;-80
2023/03/15 07:10:05;;;;;;;7.57;3.47;;;3.30;99.90;;;;;;4999976;28;20260;-80
2023/03/15 07:12:32;;;;;;;8.13;4.07;;;3.60;99.90;;;;;;5014213;28;20221;-81
2023/03/15 07:14:59;;;;;;;9.20;3.50;;;3.70;99.90;;;;;;5013954;28;20208;-81
2023/03/15 07:17:25;;;;;;;5.63;4.13;;;3.80;99.90;;;;;;5014307;28;20569;-81
2023/03/15 07:19:52;;;;;;;7.00;3.83;;;3.80;99.90;;;;;;5014607;28;20611;-81
2023/03/15 07:22:21;;;;;;;12.37;5.67;;;3.70;99.90;;;;;;5015512;28;20224;-81
2023/03/15 07:24:48;;;;;;;15.30;7.17;;;3.70;99.90;;;;;;5014830;28;20605;-81
2023/03/15 07:27:15;;;;;;;9.73;5.80;;;3.90;99.90;;;;;;5014675;28;20204;-81
2023/03/15 07:29:42;;;;;;;13.13;5.30;;;4.00;99.90;;;;;;5013671;28;20197;-81
2023/03/15 07:32:08;;;;;;;11.97;5.40;;;4.00;99.90;;;;;;5009752;28;20236;-81
2023/03/15 07:34:35;;;;;;;7.33;4.13;;;4.00;99.90;;;;;;5026697;28;20214;-81
2023/03/15 07:37:02;;;;;;;7.30;4.83;;;4.10;99.90;;;;;;5022991;28;20300;-81
2023/03/15 07:39:31;;;;;;;9.30;4.93;;;4.10;99.90;;;;;;5012624;28;20251;-81
2023/03/15 07:41:58;;;;;;;9.13;4.53;;;4.10;99.90;;;;;;5014313;28;20228;-81
2023/03/15 07:44:25;;;;;;;10.83;5.50;;;4.10;99.90;;;;;;5014618;28;20204;-82
2023/03/15 07:46:53;;;;;;;8.87;5.03;;;4.10;99.90;;;;;;5013482;28;20204;-82
2023/03/15 07:49:20;;;;;;;10.27;5.93;;;4.20;99.90;;;;;;5013875;28;20200;-81
2023/03/15 07:51:47;;;;;;;11.00;5.40;;;5.40;99.90;;;;;;5014607;28;20755;-81
2023/03/15 07:54:14;;;;;;;8.00;3.83;;;4.80;99.90;;;;;;5013947;28;20283;-81
2023/03/15 07:56:42;;;;;;;7.30;4.00;;;4.90;99.90;;;;;;5014074;28;20582;-81
2023/03/15 07:59:09;;;;;;;7.83;4.47;;;5.40;99.90;;;;;;5013643;28;20224;-81
2023/03/15 08:01:35;;;;;;;8.13;4.37;;;5.80;99.90;;;;;;5014454;28;20221;-81
2023/03/15 08:04:02;;;;;;;10.20;4.50;;;7.70;99.90;;;;;;5013764;28;20570;-81
2023/03/15 08:06:30;;;;;;;9.57;4.57;;;6.60;99.90;;;;;;5014476;28;20206;-82
2023/03/15 08:08:57;;;;;;;10.80;4.50;;;7.00;99.90;;;;;;5012455;28;20240;-82
2023/03/15 08:11:24;;;;;;;7.60;4.30;;;6.70;99.90;;;;;;5022068;28;20700;-81
2023/03/15 08:13:52;;;;;;;10.33;4.17;;;7.00;99.90;;;;;;5031042;28;20203;-82
2023/03/15 08:16:18;;;;;;;6.90;4.47;;;6.40;99.90;;;;;;5022682;28;20210;-82
2023/03/15 08:18:45;;;;;;;10.10;3.80;;;5.80;99.90;;;;;;5013665;28;20232;-82
2023/03/15 08:21:12;;;;;;;7.63;3.10;;;5.20;99.90;;;;;;5013901;28;20224;-80
2023/03/15 08:23:39;;;;;;;9.00;3.40;;;4.90;99.90;;;;;;5012912;28;20208;-81
2023/03/15 08:26:06;;;;;;;9.50;3.30;;;6.40;99.90;;;;;;5013711;28;20201;-82
2023/03/15 08:28:33;;;;;;;7.93;2.77;;;7.70;99.90;;;;;;5012117;28;20204;-82
2023/03/15 08:31:01;;;;;;;5.40;2.70;;;8.40;99.90;;;;;;5013936;28;20228;-81
2023/03/15 08:33:29;;;;;;;6.10;2.80;;;6.90;99.90;;;;;;5012617;28;20208;-82
2023/03/15 08:35:56;;;;;;;3.40;2.07;;;5.90;99.90;;;;;;5013068;28;20212;-82
2023/03/15 08:38:22;;;;;;;5.57;3.00;;;5.80;99.90;;;;;;5011952;28;20216;-82
2023/03/15 08:40:49;;;;;;;4.60;2.30;;;5.90;99.90;;;;;;5012726;28;20232;-82
2023/03/15 08:43:16;;;;;;;3.97;2.40;;;5.50;99.90;;;;;;5013727;28;20201;-82
2023/03/15 08:45:43;;;;;;;5.53;2.53;;;6.10;99.90;;;;;;5012425;28;20204;-82
2023/03/15 08:48:13;;;;;;;4.37;2.37;;;6.10;99.90;;;;;;4999706;28;20231;-82
2023/03/15 08:50:40;;;;;;;3.30;2.40;;;6.10;99.90;;;;;;5002559;28;20631;-81
2023/03/15 08:53:06;;;;;;;4.80;2.77;;;6.40;99.90;;;;;;5032548;28;20200;-81
2023/03/15 08:55:33;;;;;;;6.90;2.63;;;6.50;99.90;;;;;;5032187;28;20356;-81
2023/03/15 08:58:00;;;;;;;7.30;2.80;;;6.70;99.90;;;;;;5032671;28;20694;-81
2023/03/15 09:00:27;;;;;;;4.83;2.40;;;6.80;99.90;;;;;;5032251;28;20231;-82
2023/03/15 09:02:55;;;;;;;5.13;2.10;;;7.10;99.90;;;;;;5032716;28;20205;-81
2023/03/15 09:05:24;;;;;;;6.37;2.40;;;6.90;99.90;;;;;;5031214;28;20214;-81
2023/03/15 09:07:52;;;;;;;5.23;2.53;;;7.10;99.90;;;;;;5020163;28;20201;-81
2023/03/15 09:10:20;;;;;;;3.60;1.60;;;7.70;99.90;;;;;;4999729;28;20205;-81
2023/03/15 09:12:49;;;;;;;4.63;2.00;;;7.50;99.90;;;;;;5029518;28;20216;-81
2023/03/15 09:15:18;;;;;;;7.10;2.20;;;7.70;99.90;;;;;;5032439;28;20199;-81
2023/03/15 09:17:45;;;;;;;2.40;1.43;;;7.00;99.90;;;;;;5032271;28;20595;-82
2023/03/15 09:20:15;;;;;;;8.03;1.80;;;7.40;99.90;;;;;;5023554;28;20572;-82
2023/03/15 09:22:44;;;;;;;3.77;1.90;;;7.80;99.90;;;;;;5031452;28;20224;-81
2023/03/15 09:25:11;;;;;;;11.03;2.30;;;8.10;99.90;;;;;;5024390;28;20652;-82
2023/03/15 09:27:38;;;;;;;5.63;2.40;;;7.20;99.90;;;;;;5015209;28;20628;-82
2023/03/15 09:30:05;;;;;;;8.87;2.33;;;7.90;99.90;;;;;;5009355;28;20599;-82
2023/03/15 09:32:34;;;;;;;5.67;2.00;;;8.10;99.90;;;;;;5006451;28;20569;-82
2023/03/15 09:35:02;;;;;;;4.10;1.90;;;8.50;99.90;;;;;;5007811;28;20204;-81
2023/03/15 09:37:29;;;;;;;5.17;1.70;;;8.70;99.90;;;;;;5016018;28;20258;-82
2023/03/15 09:39:57;;;;;;;8.53;1.97;;;8.90;99.90;;;;;;5004064;28;20225;-82
2023/03/15 09:42:32;;;;;;;6.50;1.80;;;8.40;99.90;;;;;;5022850;28;20228;-82
2023/03/15 09:45:05;;;;;;;8.67;1.77;;;8.00;99.90;;;;;;5026905;28;20195;-83
2023/03/15 09:47:39;;;;;;;7.10;1.90;;;8.10;99.90;;;;;;5029618;28;20204;-83
2023/03/15 09:50:15;;;;;;;4.13;1.80;;;8.50;99.90;;;;;;5028525;28;20196;-82
2023/03/15 09:52:45;;;;;;;6.77;1.63;;;8.20;99.90;;;;;;5033920;28;20230;-82
2023/03/15 09:55:17;;;;;;;7.07;1.90;;;8.20;99.90;;;;;;5020326;28;20214;-82
2023/03/15 09:57:50;;;;;;;8.27;2.07;;;8.70;99.90;;;;;;5034780;28;20214;-82
2023/03/15 10:00:23;;;;;;;4.37;1.90;;;8.90;99.90;;;;;;5035898;28;20228;-81
2023/03/15 10:02:58;;;;;;;5.17;1.70;;;8.20;1.00;;;;;;5033898;28;20210;-81
2023/03/15 10:05:32;;;;;;;9.67;1.70;;;7.90;1.00;;;;;;5036177;28;20203;-82
2023/03/15 10:07:59;;;;;;;4.67;1.50;;;8.30;99.90;;;;;;5035145;28;20705;-82
2023/03/15 10:10:33;;;;;;;5.40;1.50;;;8.40;1.00;;;;;;5035506;28;20211;-82
2023/03/15 10:13:13;;;;;;;4.80;1.27;;;8.10;99.90;;;;;;5035945;28;20215;-82
2023/03/15 10:15:49;;;;;;;12.53;1.43;;;8.00;1.00;;;;;;5028763;28;20579;-82
2023/03/15 10:18:38;;;;;;;8.13;1.73;;;9.00;99.90;;;;;;5006741;28;20690;-82
2023/03/15 10:21:12;;;;;;;7.33;1.53;;;8.80;1.00;;;;;;5002016;28;20234;-82
2023/03/15 10:23:47;;;;;;;7.70;1.83;;;9.40;1.00;;;;;;5015053;28;20212;-82
2023/03/15 10:26:21;;;;;;;3.60;1.37;;;9.60;1.00;;;;;;5015878;28;20206;-83
2023/03/15 10:28:49;;;;;;;5.80;1.63;;;10.00;1.00;;;;;;5005754;28;20205;-81
2023/03/15 10:31:19;;;;;;;5.73;1.50;;;9.10;1.00;;;;;;4996330;28;20228;-82
2023/03/15 10:33:48;;;;;;;10.50;1.83;;;9.10;99.90;;;;;;5005628;28;20208;-83
2023/03/15 10:36:17;;;;;;;8.70;1.97;;;9.30;99.90;;;;;;5014053;28;20204;-82
2023/03/15 10:38:45;;;;;;;8.17;2.43;;;8.60;99.90;;;;;;5015344;28;20227;-82
2023/03/15 10:41:14;;;;;;;14.13;5.27;;;7.90;1.00;;;;;;5015605;28;20230;-81
2023/03/15 10:43:58;;;;;;;17.20;7.10;;;8.00;1.00;;;;;;5015252;28;20208;-82
2023/03/15 10:46:26;;;;;;;9.63;3.30;;;8.80;1.00;;;;;;5015067;28;20212;-81
2023/03/15 10:48:57;;;;;;;5.00;1.63;;;8.20;1.00;;;;;;5015837;28;20222;-83
2023/03/15 10:51:26;;;;;;;3.27;2.03;;;7.70;1.00;;;;;;5015453;28;20220;-81
2023/03/15 10:53:55;;;;;;;10.10;2.07;;;8.00;99.90;;;;;;5014653;28;20201;-81
2023/03/15 10:56:25;;;;;;;8.83;1.63;;;8.60;99.90;;;;;;5015590;28;20200;-81
2023/03/15 10:58:55;;;;;;;6.20;1.87;;;8.60;99.90;;;;;;5014881;28;20220;-82
2023/03/15 11:01:25;;;;;;;7.73;1.80;;;8.30;1.00;;;;;;5007007;28;20248;-83
2023/03/15 11:04:10;;;;;;;9.00;1.97;;;7.70;99.90;;;;;;5015179;28;20200;-82
2023/03/15 11:06:41;;;;;;;4.27;1.33;;;7.50;1.00;;;;;;5015407;28;20197;-82
2023/03/15 11:09:10;;;;;;;6.13;1.87;;;7.10;1.00;;;;;;5014267;28;20205;-83
2023/03/15 11:12:00;;;;;;;4.43;1.23;;;7.10;99.90;;;;;;5015022;28;20216;-82
2023/03/15 11:14:34;;;;;;;4.87;1.17;;;7.40;1.00;;;;;;5014852;28;20958;-82
2023/03/15 11:17:01;;;;;;;9.50;1.57;;;8.30;1.00;;;;;;5014741;28;20209;-81
2023/03/15 11:19:30;;;;;;;6.00;2.30;;;8.70;1.00;;;;;;5014359;28;20687;-80
2023/03/15 11:21:59;;;;;;;7.30;1.37;;;9.10;99.90;;;;;;5013768;28;20228;-80
2023/03/15 11:24:29;;;;;;;5.90;1.10;;;9.10;1.00;;;;;;5016371;28;20204;-80
2023/03/15 11:27:00;;;;;;;3.97;1.00;;;9.30;1.00;;;;;;4998865;28;20209;-80
2023/03/15 11:29:31;;;;;;;6.13;1.20;;;9.40;1.00;;;;;;4993416;28;20209;-79
2023/03/15 11:32:01;;;;;;;5.37;1.20;;;9.70;1.00;;;;;;5002410;28;20216;-80
2023/03/15 11:34:38;;;;;;;5.37;1.40;;;9.90;1.00;;;;;;5013322;28;20620;-80
2023/03/15 11:37:12;;;;;;;4.50;1.53;;;9.60;1.00;;;;;;5013080;28;20188;-80
2023/03/15 11:39:44;;;;;;;2.87;0.90;;;9.90;1.00;;;;;;5030341;28;20206;-80
2023/03/15 11:42:16;;;;;;;5.47;1.50;;;9.90;1.00;;;;;;5014937;28;20709;-80
2023/03/15 11:44:47;;;;;;;5.07;1.23;;;10.30;1.00;;;;;;5021860;28;20196;-80
2023/03/15 11:47:23;;;;;;;4.63;1.40;;;9.90;1.00;;;;;;5035112;28;20218;-78
2023/03/15 11:49:52;;;;;;;2.73;0.83;;;10.10;1.00;;;;;;5026005;28;20577;-79
2023/03/15 11:52:22;;;;;;;3.07;1.13;;;10.20;1.00;;;;;;5016423;28;20223;-79
2023/03/15 11:54:50;;;;;;;4.23;0.93;;;10.50;1.00;;;;;;5027369;28;20199;-79
2023/03/15 11:57:38;;;;;;;6.47;1.90;;;10.60;1.00;;;;;;5036644;28;20222;-79
2023/03/15 12:00:41;;;;;;;4.40;1.00;;;10.30;99.90;;;;;;5025755;28;20219;-79
2023/03/15 12:03:37;;;;;;;4.67;1.30;;;10.10;99.90;;;;;;5022656;28;20211;-83
2023/03/15 12:06:10;;;;;;;3.20;0.90;;;10.70;99.90;;;;;;5016157;28;20208;-81
2023/03/15 12:08:47;;;;;;;3.80;1.10;;;10.60;99.90;;;;;;5007110;28;20311;-80
2023/03/15 12:11:41;;;;;;;3.37;1.23;;;10.70;99.90;;;;;;5008275;28;20306;-81
2023/03/15 12:14:29;;;;;;;5.13;1.10;;;11.10;99.90;;;;;;5013002;28;20200;-79
2023/03/15 12:17:33;;;;;;;4.80;1.10;;;8.50;99.90;;;;;;4993031;28;20213;-80
2023/03/15 12:20:08;;;;;;;6.20;1.27;;;7.70;99.90;;;;;;5015015;28;20242;-81
2023/03/15 12:22:36;;;;;;;6.17;1.60;;;7.50;1.00;;;;;;5015130;28;20252;-79
2023/03/15 12:25:12;;;;;;;5.77;1.40;;;7.60;99.90;;;;;;5017084;28;20223;-80
2023/03/15 12:27:43;;;;;;;6.37;1.30;;;7.80;1.00;;;;;;5016483;28;20675;-80
2023/03/15 12:30:19;;;;;;;11.13;1.83;;;8.10;1.00;;;;;;5014534;28;20584;-80
2023/03/15 12:32:51;;;;;;;5.03;1.20;;;8.70;99.90;;;;;;5014576;28;20223;-80
2023/03/15 12:35:21;;;;;;;5.90;1.20;;;9.00;99.90;;;;;;5014223;28;20806;-81
2023/03/15 12:37:50;;;;;;;7.30;1.20;;;9.00;1.00;;;;;;5004288;28;20205;-81
2023/03/15 12:40:39;;;;;;;2.30;1.10;;;9.10;1.00;;;;;;4991367;28;20216;-80
2023/03/15 12:43:06;;;;;;;1.73;1.27;;;9.40;99.90;;;;;;5005903;28;20258;-80
2023/03/15 12:45:42;;;;;;;3.87;1.20;;;9.30;1.00;;;;;;5029595;28;20226;-81
2023/03/15 12:48:29;;;;;;;9.53;1.93;;;9.50;1.00;;;;;;5019812;28;20219;-82
2023/03/15 12:51:00;;;;;;;5.13;1.00;;;9.20;1.00;;;;;;5018474;28;20763;-80
2023/03/15 12:53:37;;;;;;;3.87;1.20;;;8.90;1.00;;;;;;5014216;28;20203;-82
2023/03/15 12:56:31;;;;;;;1.73;0.90;;;8.90;1.00;;;;;;5015859;28;20637;-82
2023/03/15 12:59:03;;;;;;;3.90;1.00;;;8.30;1.00;;;;;;4994482;28;20196;-81
2023/03/15 13:01:32;;;;;;;1.33;0.80;;;7.00;1.00;;;;;;5000302;28;20312;-82
2023/03/15 13:03:59;;;;;;;4.37;1.03;;;6.20;99.90;;;;;;5016753;28;20200;-81
2023/03/15 13:06:41;;;;;;;4.63;1.13;;;5.70;44.40;;;;;;5018863;28;20201;-81